createdAt,value
2018-03-30T00:02:04.378Z,13.37
2018-03-30T00:04:30.809Z,13.60
2018-03-30T00:07:03.266Z,13.33
2018-03-30T00:09:41.914Z,14.00
2018-03-30T00:12:08.257Z,14.30
2018-03-30T00:14:34.648Z,15.13
2018-03-30T00:17:01.120Z,16.10
2018-03-30T00:19:27.534Z,16.30
2018-03-30T00:21:53.993Z,16.87
2018-03-30T00:24:20.366Z,17.37
2018-03-30T00:26:46.765Z,15.90
2018-03-30T00:29:13.246Z,18.10
2018-03-30T00:31:39.616Z,21.33
2018-03-30T00:34:06.054Z,21.07
2018-03-30T00:36:32.439Z,20.67
2018-03-30T00:38:58.840Z,20.50
2018-03-30T00:41:25.233Z,19.90
2018-03-30T00:43:51.617Z,20.37
2018-03-30T00:46:18.014Z,20.07
2018-03-30T00:48:44.442Z,18.90
2018-03-30T00:51:10.832Z,18.20
2018-03-30T00:53:47.038Z,16.60
2018-03-30T00:56:13.405Z,15.13
2018-03-30T00:58:39.826Z,14.97
2018-03-30T01:01:06.241Z,13.67
2018-03-30T01:03:32.735Z,13.23
2018-03-30T01:05:59.131Z,13.53
2018-03-30T01:08:26.438Z,14.23
2018-03-30T01:10:52.869Z,13.23
2018-03-30T01:13:19.281Z,14.17
2018-03-30T01:15:45.741Z,13.43
2018-03-30T01:18:12.133Z,14.67
2018-03-30T01:20:38.578Z,13.97
2018-03-30T01:23:05.006Z,14.33
2018-03-30T01:25:31.455Z,13.53
2018-03-30T01:27:57.906Z,13.07
2018-03-30T01:30:24.342Z,13.17
2018-03-30T01:32:50.746Z,12.60
2018-03-30T01:35:17.222Z,13.03
2018-03-30T01:37:43.626Z,12.53
2018-03-30T01:40:10.105Z,11.70
2018-03-30T01:42:36.537Z,12.93
2018-03-30T01:45:02.973Z,12.87
2018-03-30T01:47:29.423Z,13.40
2018-03-30T01:49:55.829Z,14.03
2018-03-30T01:52:22.222Z,13.47
2018-03-30T01:54:48.665Z,13.83
2018-03-30T01:57:15.110Z,14.07
2018-03-30T01:59:41.506Z,14.93
2018-03-30T02:02:07.893Z,14.33
2018-03-30T02:04:34.378Z,15.13
2018-03-30T02:07:00.806Z,15.53
2018-03-30T02:09:27.252Z,16.53
2018-03-30T02:11:53.669Z,14.57
2018-03-30T02:14:20.122Z,15.23
2018-03-30T02:16:46.478Z,16.87
2018-03-30T02:19:12.930Z,15.47
2018-03-30T02:21:39.321Z,16.80
2018-03-30T02:24:05.690Z,15.87
2018-03-30T02:26:32.181Z,16.97
2018-03-30T02:28:58.607Z,17.87
2018-03-30T02:31:25.046Z,16.47
2018-03-30T02:33:51.465Z,17.57
2018-03-30T02:36:17.872Z,17.00
2018-03-30T02:38:44.226Z,16.77
2018-03-30T02:41:10.678Z,16.60
2018-03-30T02:43:37.066Z,16.83
2018-03-30T02:46:03.465Z,16.27
2018-03-30T02:48:29.877Z,17.43
2018-03-30T02:50:56.393Z,17.50
2018-03-30T02:53:22.843Z,16.70
2018-03-30T02:55:49.201Z,16.07
2018-03-30T02:58:15.602Z,17.67
2018-03-30T03:00:42.046Z,17.37
2018-03-30T03:03:08.445Z,17.13
2018-03-30T03:05:34.802Z,16.70
2018-03-30T03:08:01.207Z,16.73
2018-03-30T03:10:27.598Z,16.83
2018-03-30T03:12:53.997Z,17.47
2018-03-30T03:15:20.406Z,17.97
2018-03-30T03:17:46.877Z,18.03
2018-03-30T03:20:13.270Z,16.77
2018-03-30T03:22:39.659Z,16.83
2018-03-30T03:25:06.099Z,18.67
2018-03-30T03:27:32.501Z,18.20
2018-03-30T03:29:59.003Z,19.23
2018-03-30T03:32:25.371Z,20.10
2018-03-30T03:34:51.768Z,19.13
2018-03-30T03:37:18.237Z,19.20
2018-03-30T03:39:44.605Z,18.63
2018-03-30T03:42:11.012Z,19.03
2018-03-30T03:44:37.433Z,18.57
2018-03-30T03:47:03.898Z,19.23
2018-03-30T03:49:30.263Z,19.37
2018-03-30T03:51:56.658Z,18.63
2018-03-30T03:54:23.102Z,19.60
2018-03-30T03:56:49.514Z,19.87
2018-03-30T03:59:15.930Z,21.23
2018-03-30T04:01:42.354Z,22.03
2018-03-30T04:04:08.739Z,21.77
2018-03-30T04:06:35.168Z,21.90
2018-03-30T04:09:01.570Z,22.40
2018-03-30T04:11:28.001Z,20.43
2018-03-30T04:13:54.357Z,19.13
2018-03-30T04:16:20.762Z,20.97
2018-03-30T04:18:47.153Z,17.97
2018-03-30T04:21:13.594Z,20.23
2018-03-30T04:23:40.004Z,19.80
2018-03-30T04:26:06.386Z,21.77
2018-03-30T04:28:32.841Z,25.43
2018-03-30T04:30:59.305Z,33.73
2018-03-30T04:33:25.690Z,34.53
2018-03-30T04:35:52.070Z,28.87
2018-03-30T04:38:18.610Z,27.30
2018-03-30T04:40:44.990Z,29.83
2018-03-30T04:43:11.370Z,39.80
2018-03-30T04:45:37.781Z,40.10
2018-03-30T04:48:04.314Z,32.63
2018-03-30T04:50:30.713Z,31.10
2018-03-30T04:52:57.177Z,30.50
2018-03-30T04:55:23.550Z,32.53
2018-03-30T04:57:49.984Z,32.47
2018-03-30T05:00:16.344Z,37.43
2018-03-30T05:02:42.886Z,35.77
2018-03-30T05:05:09.319Z,30.00
2018-03-30T05:07:35.794Z,27.83
2018-03-30T05:10:02.178Z,26.63
2018-03-30T05:12:28.854Z,26.83
2018-03-30T05:14:55.379Z,25.13
2018-03-30T05:17:21.914Z,26.53
2018-03-30T05:19:48.353Z,28.37
2018-03-30T05:22:14.786Z,29.77
2018-03-30T05:24:41.242Z,29.60
2018-03-30T05:27:08.803Z,31.80
2018-03-30T05:29:35.269Z,31.30
2018-03-30T05:32:01.671Z,34.73
2018-03-30T05:34:28.148Z,39.47
2018-03-30T05:36:54.540Z,39.07
2018-03-30T05:39:20.972Z,40.23
2018-03-30T05:41:47.390Z,40.67
2018-03-30T05:44:13.774Z,41.97
2018-03-30T05:46:40.254Z,41.17
2018-03-30T05:49:06.667Z,42.13
2018-03-30T05:51:33.119Z,40.90
2018-03-30T05:53:59.612Z,44.07
2018-03-30T05:56:26.046Z,44.83
2018-03-30T05:58:52.525Z,43.27
2018-03-30T06:01:18.934Z,43.43
2018-03-30T06:03:45.310Z,44.10
2018-03-30T06:06:11.819Z,42.90
2018-03-30T06:08:38.278Z,46.83
2018-03-30T06:11:04.714Z,42.30
2018-03-30T06:13:31.150Z,44.20
2018-03-30T06:15:57.588Z,43.77
2018-03-30T06:18:23.985Z,43.43
2018-03-30T06:20:50.397Z,39.53
2018-03-30T06:23:16.906Z,36.60
2018-03-30T06:25:43.405Z,36.93
2018-03-30T06:28:10.085Z,36.13
2018-03-30T06:30:36.707Z,35.73
2018-03-30T06:33:03.091Z,38.93
2018-03-30T06:35:29.574Z,37.60
2018-03-30T06:37:56.054Z,31.10
2018-03-30T06:40:22.542Z,31.77
2018-03-30T06:42:48.910Z,30.50
2018-03-30T06:45:15.261Z,26.73
2018-03-30T06:47:41.638Z,24.83
2018-03-30T06:50:08.099Z,24.90
2018-03-30T06:52:34.470Z,24.47
2018-03-30T06:55:00.871Z,22.73
2018-03-30T06:57:27.270Z,21.97
2018-03-30T06:59:53.760Z,25.00
2018-03-30T07:02:20.141Z,28.23
2018-03-30T07:04:46.569Z,30.30
2018-03-30T07:07:13.031Z,29.93
2018-03-30T07:09:39.431Z,30.30
2018-03-30T07:12:05.826Z,33.10
2018-03-30T07:14:32.261Z,31.87
2018-03-30T07:16:58.644Z,37.27
2018-03-30T07:19:25.070Z,40.87
2018-03-30T07:21:51.476Z,49.17
2018-03-30T07:24:17.909Z,46.03
2018-03-30T07:26:44.325Z,34.90
2018-03-30T07:29:10.822Z,34.03
2018-03-30T07:31:37.209Z,30.10
2018-03-30T07:34:03.839Z,32.87
2018-03-30T07:36:30.257Z,29.50
2018-03-30T07:38:56.742Z,34.87
2018-03-30T07:41:23.183Z,40.10
2018-03-30T07:43:49.672Z,35.17
2018-03-30T07:46:16.166Z,36.03
2018-03-30T07:48:42.617Z,36.27
2018-03-30T07:51:09.149Z,32.20
2018-03-30T07:53:35.765Z,35.87
2018-03-30T07:56:09.406Z,34.63
2018-03-30T07:58:44.114Z,34.00
2018-03-30T08:01:10.598Z,29.77
2018-03-30T08:03:37.173Z,30.50
2018-03-30T08:06:03.623Z,32.10
2018-03-30T08:08:30.097Z,31.10
2018-03-30T08:10:56.490Z,30.27
2018-03-30T08:13:30.161Z,31.93
2018-03-30T08:15:56.913Z,27.73
2018-03-30T08:18:23.326Z,31.93
2018-03-30T08:20:49.830Z,29.97
2018-03-30T08:23:16.290Z,30.90
2018-03-30T08:25:42.722Z,28.67
2018-03-30T08:28:09.146Z,27.80
2018-03-30T08:30:35.537Z,29.20
2018-03-30T08:33:02.086Z,28.33
2018-03-30T08:35:28.501Z,28.90
2018-03-30T08:50:54.351Z,26.77
2018-03-30T08:53:21.584Z,28.47
2018-03-30T08:55:48.135Z,27.03
2018-03-30T08:58:14.539Z,26.07
2018-03-30T09:00:41.137Z,24.33
2018-03-30T09:03:07.561Z,26.27
2018-03-30T09:05:34.038Z,23.80
2018-03-30T09:08:00.454Z,24.20
2018-03-30T09:10:26.975Z,23.73
2018-03-30T09:12:53.478Z,24.43
2018-03-30T09:15:19.933Z,23.60
2018-03-30T09:17:46.430Z,22.50
2018-03-30T09:20:12.869Z,22.43
2018-03-30T09:22:39.256Z,21.33
2018-03-30T09:25:05.719Z,20.73
2018-03-30T09:27:32.122Z,20.43
2018-03-30T09:29:58.569Z,19.23
2018-03-30T09:32:25.143Z,20.07
2018-03-30T09:34:51.522Z,19.27
2018-03-30T09:37:17.922Z,19.33
2018-03-30T09:39:44.373Z,16.07
2018-03-30T09:42:10.778Z,17.23
2018-03-30T09:44:37.146Z,14.37
2018-03-30T09:47:03.654Z,12.83
2018-03-30T09:49:30.174Z,13.43
2018-03-30T09:51:56.670Z,14.33
2018-03-30T09:54:23.160Z,15.90
2018-03-30T09:56:49.542Z,12.83
2018-03-30T09:59:15.970Z,13.37
2018-03-30T10:01:42.485Z,12.20
2018-03-30T10:04:09.015Z,10.87
2018-03-30T10:06:35.450Z,11.13
2018-03-30T10:09:01.922Z,10.80
2018-03-30T10:11:28.512Z,10.30
2018-03-30T10:13:55.023Z,10.93
2018-03-30T10:16:21.461Z,12.03
2018-03-30T10:18:47.981Z,9.90
2018-03-30T10:21:14.475Z,9.97
2018-03-30T10:23:41.120Z,12.13
2018-03-30T10:26:07.749Z,10.97
2018-03-30T10:28:34.214Z,9.40
2018-03-30T10:31:00.740Z,10.87
2018-03-30T10:33:27.154Z,10.27
2018-03-30T10:35:53.591Z,9.93
2018-03-30T10:38:19.997Z,11.93
2018-03-30T10:40:46.350Z,9.83
2018-03-30T10:43:12.841Z,9.77
2018-03-30T10:45:39.202Z,10.40
2018-03-30T10:48:05.583Z,10.10
2018-03-30T10:50:32.041Z,9.33
2018-03-30T10:52:58.439Z,9.37
2018-03-30T10:55:24.881Z,11.40
2018-03-30T10:57:51.322Z,12.37
2018-03-30T11:00:17.709Z,10.17
2018-03-30T11:02:44.227Z,10.03
2018-03-30T11:05:10.820Z,10.57
2018-03-30T11:07:37.174Z,10.30
2018-03-30T11:10:03.669Z,8.10
2018-03-30T11:12:30.102Z,8.10
2018-03-30T11:14:56.496Z,8.47
2018-03-30T11:17:22.913Z,7.97
2018-03-30T11:19:49.302Z,9.43
2018-03-30T11:22:15.958Z,8.37
2018-03-30T11:24:42.419Z,8.57
2018-03-30T11:27:08.797Z,8.17
2018-03-30T11:29:35.357Z,7.83
2018-03-30T11:32:01.950Z,8.73
2018-03-30T11:34:28.373Z,8.13
2018-03-30T11:36:54.767Z,7.13
2018-03-30T11:39:39.627Z,9.00
2018-03-30T11:42:19.696Z,10.07
2018-03-30T11:44:50.363Z,9.00
2018-03-30T11:47:30.472Z,9.23
2018-03-30T11:50:04.067Z,8.90
2018-03-30T11:52:31.670Z,9.83
2018-03-30T11:54:58.294Z,9.77
2018-03-30T11:57:31.780Z,8.23
2018-03-30T11:59:59.176Z,8.50
2018-03-30T12:02:25.745Z,8.90
2018-03-30T12:04:52.395Z,8.67
2018-03-30T12:07:31.377Z,8.93
2018-03-30T12:10:05.261Z,8.90
2018-03-30T12:12:39.508Z,9.10
2018-03-30T12:15:09.659Z,9.13
2018-03-30T12:17:39.311Z,9.40
2018-03-30T12:20:06.538Z,9.53
2018-03-30T12:22:32.945Z,9.17
2018-03-30T12:24:59.357Z,10.27
2018-03-30T12:27:25.805Z,11.60
2018-03-30T12:29:52.257Z,10.50
2018-03-30T12:32:18.682Z,11.67
2018-03-30T12:34:45.093Z,9.97
2018-03-30T12:37:11.510Z,11.67
2018-03-30T12:39:37.915Z,11.00
2018-03-30T12:42:04.610Z,11.30
2018-03-30T12:44:31.009Z,10.80
2018-03-30T12:46:57.405Z,11.07
2018-03-30T12:49:23.833Z,12.33
2018-03-30T12:51:50.285Z,11.50
2018-03-30T12:54:16.693Z,11.50
2018-03-30T12:56:43.318Z,11.67
2018-03-30T12:59:09.764Z,10.53
2018-03-30T13:01:36.202Z,9.37
2018-03-30T13:04:02.735Z,8.90
2018-03-30T13:06:29.097Z,9.60
2018-03-30T13:08:55.481Z,9.17
2018-03-30T13:11:21.957Z,10.47
2018-03-30T13:13:48.532Z,9.73
2018-03-30T13:16:15.002Z,9.97
2018-03-30T13:18:41.445Z,11.33
2018-03-30T13:21:07.834Z,10.77
2018-03-30T13:23:34.290Z,11.23
2018-03-30T13:26:00.762Z,11.60
2018-03-30T13:28:27.173Z,10.87
2018-03-30T13:30:53.634Z,11.50
2018-03-30T13:33:20.066Z,12.27
2018-03-30T13:35:46.466Z,12.50
2018-03-30T13:38:12.995Z,11.70
2018-03-30T13:40:39.410Z,11.73
2018-03-30T13:43:05.849Z,9.80
2018-03-30T13:45:32.306Z,10.57
2018-03-30T13:47:58.765Z,10.43
2018-03-30T13:50:26.253Z,9.70
2018-03-30T13:53:02.590Z,9.30
2018-03-30T13:55:30.865Z,8.53
2018-03-30T13:58:00.150Z,8.33
2018-03-30T14:00:32.813Z,7.97
2018-03-30T14:03:02.031Z,8.80
2018-03-30T14:05:32.347Z,8.07
2018-03-30T14:21:24.135Z,7.30
2018-03-30T14:24:01.351Z,9.00
2018-03-30T14:26:36.054Z,7.47
2018-03-30T14:29:20.370Z,7.43
2018-03-30T14:45:13.431Z,7.03
2018-03-30T14:47:41.990Z,7.50
2018-03-30T14:50:09.482Z,7.13
2018-03-30T14:52:41.671Z,8.30
2018-03-30T14:55:09.170Z,8.50
2018-03-30T14:57:40.410Z,9.00
2018-03-30T15:00:23.594Z,8.53
2018-03-30T15:03:02.598Z,7.40
2018-03-30T15:05:40.039Z,9.10
2018-03-30T15:08:18.582Z,9.03
2018-03-30T15:11:03.167Z,9.73
2018-03-30T15:13:32.493Z,10.93
2018-03-30T15:16:06.796Z,9.57
2018-03-30T15:18:39.002Z,9.67
2018-03-30T15:21:11.397Z,10.07
2018-03-30T15:23:43.686Z,9.63
2018-03-30T15:26:22.902Z,10.10
2018-03-30T15:28:50.479Z,10.03
2018-03-30T15:31:17.975Z,10.00
2018-03-30T15:33:49.470Z,10.40
2018-03-30T15:36:27.086Z,10.83
2018-03-30T15:38:53.586Z,10.20
2018-03-30T15:41:20.058Z,10.40
2018-03-30T15:43:47.318Z,10.40
2018-03-30T15:46:13.853Z,10.47
2018-03-30T15:48:40.386Z,11.53
2018-03-30T15:51:09.653Z,11.83
2018-03-30T15:53:35.785Z,11.00
2018-03-30T15:56:13.209Z,11.60
2018-03-30T15:58:39.722Z,11.57
2018-03-30T16:01:06.250Z,11.53
2018-03-30T16:03:32.781Z,12.77
2018-03-30T16:05:59.361Z,14.53
2018-03-30T16:08:25.846Z,13.77
2018-03-30T16:10:54.185Z,24.17
2018-03-30T16:13:20.730Z,17.20
2018-03-30T16:15:47.229Z,14.17
2018-03-30T16:18:13.862Z,15.53
2018-03-30T16:20:39.999Z,13.30
2018-03-30T16:23:06.216Z,16.43
2018-03-30T16:25:32.342Z,13.37
2018-03-30T16:27:58.446Z,13.63
2018-03-30T16:30:24.658Z,13.83
2018-03-30T16:32:50.966Z,14.70
2018-03-30T16:35:17.262Z,14.30
2018-03-30T16:37:43.420Z,14.50
2018-03-30T16:40:09.477Z,14.47
2018-03-30T16:42:35.520Z,18.10
2018-03-30T16:45:01.578Z,17.50
2018-03-30T16:47:27.614Z,17.57
2018-03-30T16:49:53.674Z,17.33
2018-03-30T16:52:19.746Z,17.73
2018-03-30T16:54:45.842Z,18.77
2018-03-30T16:57:11.926Z,18.83
2018-03-30T16:59:37.990Z,16.07
2018-03-30T17:02:04.142Z,15.17
2018-03-30T17:04:30.234Z,15.97
2018-03-30T17:06:56.358Z,16.57
2018-03-30T17:09:22.397Z,16.13
2018-03-30T17:11:48.386Z,16.97
2018-03-30T17:14:14.458Z,17.07
2018-03-30T17:16:40.421Z,15.80
2018-03-30T17:19:06.470Z,16.13
2018-03-30T17:21:32.698Z,16.23
2018-03-30T17:23:58.707Z,17.73
2018-03-30T17:26:24.748Z,16.30
2018-03-30T17:28:50.762Z,15.97
2018-03-30T17:31:18.880Z,16.67
2018-03-30T17:33:46.176Z,17.10
2018-03-30T17:36:12.162Z,16.33
2018-03-30T17:38:38.178Z,14.60
2018-03-30T17:41:04.154Z,14.07
2018-03-30T17:43:30.135Z,14.20
2018-03-30T17:45:56.186Z,14.73
2018-03-30T17:48:22.153Z,18.33
2018-03-30T17:50:48.217Z,18.10
2018-03-30T17:53:14.293Z,16.73
2018-03-30T17:55:40.322Z,19.97
2018-03-30T17:58:06.330Z,21.30
2018-03-30T18:00:32.418Z,28.50
2018-03-30T18:02:58.414Z,18.10
2018-03-30T18:05:24.536Z,15.10
2018-03-30T18:07:50.534Z,15.13
2018-03-30T18:10:16.623Z,14.07
2018-03-30T18:12:42.664Z,14.67
2018-03-30T18:15:08.711Z,14.60
2018-03-30T18:17:34.737Z,15.67
2018-03-30T18:20:01.020Z,16.13
2018-03-30T18:22:27.062Z,15.93
2018-03-30T18:24:53.249Z,14.47
2018-03-30T18:27:19.326Z,14.77
2018-03-30T18:29:45.397Z,14.77
2018-03-30T18:32:11.494Z,15.03
2018-03-30T18:34:37.561Z,14.33
2018-03-30T18:37:03.674Z,15.27
2018-03-30T18:39:29.744Z,15.20
2018-03-30T18:41:55.867Z,15.37
2018-03-30T18:44:21.924Z,14.77
2018-03-30T18:46:48.010Z,16.00
2018-03-30T18:49:14.147Z,16.77
2018-03-30T18:51:40.235Z,17.80
2018-03-30T18:54:06.239Z,16.67
2018-03-30T18:56:32.350Z,17.73
2018-03-30T18:58:58.381Z,34.53
2018-03-30T19:01:24.438Z,26.03
2018-03-30T19:03:50.629Z,26.27
2018-03-30T19:06:16.709Z,19.90
2018-03-30T19:08:42.769Z,18.10
2018-03-30T19:11:08.890Z,18.37
2018-03-30T19:13:34.958Z,20.37
2018-03-30T19:16:01.002Z,22.40
2018-03-30T19:18:27.163Z,20.23
2018-03-30T19:20:53.257Z,18.93
2018-03-30T19:23:19.264Z,19.73
2018-03-30T19:25:45.350Z,20.37
2018-03-30T19:28:11.442Z,15.87
2018-03-30T19:30:37.505Z,15.97
2018-03-30T19:33:03.585Z,16.50
2018-03-30T19:35:29.662Z,16.90
2018-03-30T19:37:55.641Z,16.93
2018-03-30T19:40:21.857Z,17.90
2018-03-30T19:42:47.876Z,18.07
2018-03-30T19:45:13.868Z,16.80
2018-03-30T19:47:39.982Z,16.17
2018-03-30T19:50:06.140Z,15.47
2018-03-30T19:52:32.284Z,16.00
2018-03-30T19:54:58.306Z,16.37
2018-03-30T19:57:24.295Z,14.60
2018-03-30T19:59:50.398Z,15.77
2018-03-30T20:02:16.463Z,14.70
2018-03-30T20:04:42.510Z,14.60
2018-03-30T20:07:08.637Z,14.10
2018-03-30T20:09:34.812Z,15.60
2018-03-30T20:12:01.100Z,14.03
2018-03-30T20:14:27.166Z,15.17
2018-03-30T20:16:53.206Z,15.23
2018-03-30T20:19:19.309Z,14.77
2018-03-30T20:21:45.662Z,14.77
2018-03-30T20:24:11.661Z,14.07
2018-03-30T20:26:37.654Z,14.13
2018-03-30T20:29:03.743Z,13.97
2018-03-30T20:31:29.809Z,15.13
2018-03-30T20:33:55.941Z,14.63
2018-03-30T20:36:22.027Z,14.50
2018-03-30T20:38:48.054Z,15.30
2018-03-30T20:41:14.076Z,16.43
2018-03-30T20:43:40.089Z,15.67
2018-03-30T20:46:06.097Z,14.63
2018-03-30T20:48:32.156Z,14.30
2018-03-30T20:50:58.149Z,13.87
2018-03-30T20:53:24.126Z,14.33
2018-03-30T20:55:50.113Z,15.33
2018-03-30T20:58:16.173Z,15.00
2018-03-30T21:00:42.182Z,14.37
2018-03-30T21:03:08.166Z,15.20
2018-03-30T21:05:34.164Z,15.40
2018-03-30T21:08:00.159Z,15.33
2018-03-30T21:10:26.136Z,15.63
2018-03-30T21:12:52.222Z,14.17
2018-03-30T21:15:18.246Z,14.03
2018-03-30T21:17:44.213Z,14.23
2018-03-30T21:20:10.231Z,14.07
2018-03-30T21:22:36.236Z,14.00
2018-03-30T21:25:02.280Z,14.27
2018-03-30T21:27:28.284Z,17.27
2018-03-30T21:29:54.353Z,15.13
2018-03-30T21:32:20.450Z,14.93
2018-03-30T21:34:46.472Z,16.40
2018-03-30T21:37:12.574Z,16.73
2018-03-30T21:39:38.601Z,19.50
2018-03-30T21:42:04.605Z,19.73
2018-03-30T21:44:30.696Z,20.70
2018-03-30T21:46:56.768Z,21.53
2018-03-30T21:49:22.868Z,17.87
2018-03-30T21:51:48.918Z,16.50
2018-03-30T21:54:14.955Z,15.50
2018-03-30T21:56:40.937Z,15.20
2018-03-30T21:59:06.933Z,15.50
2018-03-30T22:01:32.982Z,15.40
2018-03-30T22:03:59.098Z,17.20
2018-03-30T22:06:25.172Z,17.10
2018-03-30T22:08:51.196Z,18.67
2018-03-30T22:11:17.226Z,23.57
2018-03-30T22:13:43.366Z,53.57
2018-03-30T22:16:09.359Z,24.53
2018-03-30T22:18:35.418Z,43.27
2018-03-30T22:21:01.481Z,23.53
2018-03-30T22:23:27.533Z,23.47
2018-03-30T22:25:53.606Z,22.13
2018-03-30T22:28:19.598Z,17.60
2018-03-30T22:30:45.622Z,17.23
2018-03-30T22:33:11.686Z,15.83
2018-03-30T22:35:37.728Z,16.00
2018-03-30T22:38:03.754Z,15.97
2018-03-30T22:40:29.788Z,14.73
2018-03-30T22:42:55.897Z,15.23
2018-03-30T22:45:21.939Z,14.73
2018-03-30T22:47:47.926Z,14.27
2018-03-30T22:50:13.914Z,14.67
2018-03-30T22:52:39.953Z,14.60
2018-03-30T22:55:05.955Z,15.27
2018-03-30T22:57:32.045Z,14.63
2018-03-30T22:59:58.137Z,14.57
2018-03-30T23:02:24.202Z,13.57
2018-03-30T23:04:50.173Z,14.57
2018-03-30T23:07:16.378Z,13.97
2018-03-30T23:09:42.492Z,13.83
2018-03-30T23:12:08.673Z,14.47
2018-03-30T23:14:34.902Z,16.07
2018-03-30T23:17:01.084Z,15.00
2018-03-30T23:19:27.273Z,14.30
2018-03-30T23:21:53.386Z,13.83
2018-03-30T23:24:19.570Z,13.40
2018-03-30T23:26:45.765Z,13.90
2018-03-30T23:29:11.946Z,13.97
2018-03-30T23:31:38.235Z,14.10
2018-03-30T23:34:04.425Z,13.80
2018-03-30T23:36:30.653Z,14.60
2018-03-30T23:38:56.842Z,14.37
2018-03-30T23:41:23.021Z,15.37
2018-03-30T23:43:49.093Z,14.93
2018-03-30T23:46:15.189Z,14.60
2018-03-30T23:48:41.366Z,15.23
2018-03-30T23:51:07.589Z,14.37
2018-03-30T23:53:33.789Z,14.97
2018-03-30T23:55:59.906Z,14.80
2018-03-30T23:58:26.051Z,14.23
